createdAt,value
2019-01-13T00:02:16.795Z,5.70
2019-01-13T00:04:44.047Z,5.70
2019-01-13T00:07:11.312Z,5.70
2019-01-13T00:09:38.568Z,5.70
2019-01-13T00:12:05.855Z,5.70
2019-01-13T00:14:33.104Z,5.70
2019-01-13T00:17:00.345Z,5.70
2019-01-13T00:19:27.596Z,5.70
2019-01-13T00:21:54.866Z,5.60
2019-01-13T00:24:22.127Z,5.50
2019-01-13T00:26:49.760Z,5.70
2019-01-13T00:29:17.111Z,5.70
2019-01-13T00:31:44.687Z,5.70
2019-01-13T00:34:12.349Z,5.70
2019-01-13T00:36:39.989Z,5.80
2019-01-13T00:39:08.079Z,5.80
2019-01-13T00:41:35.642Z,5.80
2019-01-13T00:44:04.659Z,5.80
2019-01-13T00:46:32.018Z,5.90
2019-01-13T00:48:59.372Z,5.80
2019-01-13T00:51:26.596Z,5.80
2019-01-13T00:53:53.992Z,5.70
2019-01-13T00:56:21.273Z,5.60
2019-01-13T00:58:48.514Z,5.70
2019-01-13T01:01:15.841Z,5.70
2019-01-13T01:03:43.197Z,5.60
2019-01-13T01:06:10.454Z,5.60
2019-01-13T01:08:38.095Z,5.60
2019-01-13T01:11:07.206Z,5.60
2019-01-13T01:13:35.314Z,5.50
2019-01-13T01:16:03.172Z,5.50
2019-01-13T01:18:30.901Z,5.50
2019-01-13T01:20:58.558Z,5.40
2019-01-13T01:23:26.256Z,5.40
2019-01-13T01:25:53.556Z,5.30
2019-01-13T01:28:20.805Z,5.20
2019-01-13T01:30:48.081Z,5.10
2019-01-13T01:33:15.326Z,5.30
2019-01-13T01:35:42.582Z,5.20
2019-01-13T01:38:09.827Z,5.10
2019-01-13T01:40:37.087Z,5.20
2019-01-13T01:43:04.332Z,5.20
2019-01-13T01:45:31.583Z,5.30
2019-01-13T01:47:58.839Z,5.30
2019-01-13T01:50:26.104Z,5.40
2019-01-13T01:52:53.317Z,5.30
2019-01-13T01:55:20.584Z,5.40
2019-01-13T01:57:47.918Z,5.50
2019-01-13T02:00:20.968Z,5.60
2019-01-13T02:02:48.333Z,5.50
2019-01-13T02:05:15.661Z,5.30
2019-01-13T02:07:42.997Z,5.20
2019-01-13T02:10:13.241Z,5.40
2019-01-13T02:12:40.608Z,5.50
2019-01-13T02:15:10.425Z,5.60
2019-01-13T02:17:37.672Z,5.50
2019-01-13T02:20:07.356Z,5.60
2019-01-13T02:22:34.617Z,5.50
2019-01-13T02:25:01.964Z,5.50
2019-01-13T02:27:29.229Z,5.60
2019-01-13T02:29:56.481Z,5.60
2019-01-13T02:32:23.726Z,5.60
2019-01-13T02:34:51.084Z,5.50
2019-01-13T02:37:18.339Z,5.50
2019-01-13T02:39:45.675Z,5.50
2019-01-13T02:42:12.936Z,5.50
2019-01-13T02:44:40.199Z,5.40
2019-01-13T02:47:07.449Z,5.40
2019-01-13T02:49:37.319Z,5.40
2019-01-13T02:52:04.586Z,5.30
2019-01-13T02:54:31.811Z,5.20
2019-01-13T02:56:59.064Z,5.40
2019-01-13T02:59:26.335Z,5.30
2019-01-13T03:01:53.596Z,5.10
2019-01-13T03:04:20.876Z,5.10
2019-01-13T03:06:48.114Z,5.20
2019-01-13T03:09:15.393Z,5.20
2019-01-13T03:11:42.687Z,5.10
2019-01-13T03:14:09.930Z,5.10
2019-01-13T03:16:37.162Z,5.00
2019-01-13T03:19:04.428Z,5.10
2019-01-13T03:21:31.669Z,5.00
2019-01-13T03:23:59.272Z,4.90
2019-01-13T03:26:26.624Z,4.90
2019-01-13T03:28:53.864Z,5.00
2019-01-13T03:31:21.133Z,4.90
2019-01-13T03:33:48.355Z,5.00
2019-01-13T03:36:15.611Z,5.00
2019-01-13T03:38:42.857Z,5.10
2019-01-13T03:41:10.160Z,5.10
2019-01-13T03:43:37.436Z,5.20
2019-01-13T03:46:04.813Z,5.20
2019-01-13T03:48:32.045Z,5.20
2019-01-13T03:50:59.291Z,5.20
2019-01-13T03:53:26.620Z,5.20
2019-01-13T03:56:02.841Z,5.30
2019-01-13T03:58:30.108Z,5.20
2019-01-13T04:00:57.339Z,5.30
2019-01-13T04:03:24.580Z,5.40
2019-01-13T04:05:51.947Z,5.50
2019-01-13T04:08:19.192Z,5.60
2019-01-13T04:10:46.433Z,5.70
2019-01-13T04:13:13.708Z,5.70
2019-01-13T04:16:04.205Z,5.80
2019-01-13T04:18:31.548Z,5.60
2019-01-13T04:20:58.824Z,5.80
2019-01-13T04:23:26.387Z,5.70
2019-01-13T04:25:53.643Z,5.80
2019-01-13T04:28:20.884Z,5.80
2019-01-13T04:30:48.124Z,5.70
2019-01-13T04:33:15.369Z,5.70
2019-01-13T04:35:42.716Z,5.80
2019-01-13T04:38:09.979Z,5.80
2019-01-13T04:40:38.376Z,5.80
2019-01-13T04:43:05.639Z,5.70
2019-01-13T04:45:33.101Z,5.80
2019-01-13T04:48:00.331Z,5.90
2019-01-13T04:50:27.660Z,6.00
2019-01-13T04:52:54.947Z,5.90
2019-01-13T04:55:22.277Z,5.90
2019-01-13T04:57:49.537Z,5.90
2019-01-13T05:00:17.755Z,5.90
2019-01-13T05:02:45.118Z,6.00
2019-01-13T05:05:12.380Z,6.00
2019-01-13T05:07:39.627Z,6.00
2019-01-13T05:10:10.563Z,6.00
2019-01-13T05:12:37.792Z,6.00
2019-01-13T05:15:05.646Z,6.00
2019-01-13T05:17:33.850Z,6.00
2019-01-13T05:20:01.248Z,6.00
2019-01-13T05:22:28.509Z,6.00
2019-01-13T05:24:55.745Z,5.90
2019-01-13T05:27:23.021Z,6.00
2019-01-13T05:29:50.274Z,6.10
2019-01-13T05:32:17.500Z,5.90
2019-01-13T05:34:44.765Z,6.00
2019-01-13T05:37:12.009Z,5.90
2019-01-13T05:39:39.257Z,6.00
2019-01-13T05:42:06.511Z,6.00
2019-01-13T05:44:33.751Z,6.00
2019-01-13T05:47:00.990Z,6.00
2019-01-13T05:49:28.239Z,6.00
2019-01-13T05:51:55.486Z,5.90
2019-01-13T05:54:22.813Z,6.00
2019-01-13T05:56:50.197Z,6.10
2019-01-13T05:59:17.471Z,6.00
2019-01-13T06:01:49.055Z,6.00
2019-01-13T06:04:13.885Z,6.00
2019-01-13T06:06:41.156Z,6.00
2019-01-13T06:09:08.396Z,6.00
2019-01-13T06:11:35.645Z,6.00
2019-01-13T06:14:02.979Z,6.10
2019-01-13T06:16:30.212Z,6.10
2019-01-13T06:18:57.460Z,6.00
2019-01-13T06:21:24.702Z,6.00
2019-01-13T06:23:51.959Z,6.20
2019-01-13T06:26:19.203Z,6.10
2019-01-13T06:28:46.432Z,6.20
2019-01-13T06:31:13.706Z,6.20
2019-01-13T06:33:41.029Z,6.20
2019-01-13T06:36:08.270Z,6.20
2019-01-13T06:38:35.535Z,6.20
2019-01-13T06:41:02.802Z,6.10
2019-01-13T06:43:30.127Z,6.10
2019-01-13T06:46:00.482Z,6.30
2019-01-13T06:48:27.715Z,6.20
2019-01-13T06:50:54.955Z,6.40
2019-01-13T06:53:22.216Z,6.50
2019-01-13T06:55:49.448Z,6.50
2019-01-13T06:58:16.696Z,6.40
2019-01-13T07:00:43.928Z,6.50
2019-01-13T07:03:11.179Z,6.70
2019-01-13T07:05:38.460Z,6.60
2019-01-13T07:08:05.703Z,6.60
2019-01-13T07:10:32.940Z,6.60
2019-01-13T07:13:00.209Z,6.60
2019-01-13T07:15:27.451Z,6.80
2019-01-13T07:17:54.697Z,6.70
2019-01-13T07:20:22.060Z,6.60
2019-01-13T07:22:49.429Z,6.70
2019-01-13T07:25:16.676Z,6.90
2019-01-13T07:27:43.913Z,6.90
2019-01-13T07:30:13.838Z,6.70
2019-01-13T07:32:41.076Z,6.70
2019-01-13T07:35:08.304Z,6.80
2019-01-13T07:37:35.557Z,6.70
2019-01-13T07:40:05.212Z,6.60
2019-01-13T07:42:32.471Z,6.60
2019-01-13T07:44:59.727Z,6.70
2019-01-13T07:47:27.009Z,6.70
2019-01-13T07:49:54.238Z,6.70
2019-01-13T07:52:21.498Z,6.80
2019-01-13T07:54:48.767Z,6.80
2019-01-13T07:57:16.028Z,6.80
2019-01-13T07:59:43.277Z,6.80
2019-01-13T08:02:17.608Z,6.80
2019-01-13T08:04:40.229Z,6.80
2019-01-13T08:07:07.589Z,6.70
2019-01-13T08:09:34.822Z,6.80
2019-01-13T08:12:02.859Z,6.80
2019-01-13T08:14:30.373Z,6.70
2019-01-13T08:17:03.879Z,6.80
2019-01-13T08:19:31.108Z,6.70
2019-01-13T08:21:58.364Z,6.70
2019-01-13T08:24:25.615Z,6.70
2019-01-13T08:26:52.851Z,6.70
2019-01-13T08:29:20.394Z,6.70
2019-01-13T08:31:47.715Z,6.70
2019-01-13T08:34:15.136Z,6.70
2019-01-13T08:36:42.687Z,6.80
2019-01-13T08:39:10.749Z,6.80
2019-01-13T08:41:38.072Z,6.70
2019-01-13T08:44:05.714Z,6.60
2019-01-13T08:46:33.344Z,6.60
2019-01-13T08:49:00.664Z,6.80
2019-01-13T08:51:28.027Z,6.80
2019-01-13T08:53:55.689Z,6.80
2019-01-13T08:56:23.813Z,6.60
2019-01-13T08:58:52.383Z,6.70
2019-01-13T09:01:19.723Z,6.70
2019-01-13T09:03:53.145Z,6.60
2019-01-13T09:06:20.610Z,6.80
2019-01-13T09:08:54.258Z,6.80
2019-01-13T09:11:21.660Z,6.70
2019-01-13T09:13:49.032Z,6.90
2019-01-13T09:16:16.715Z,6.80
2019-01-13T09:19:03.740Z,6.80
2019-01-13T09:21:31.099Z,6.90
2019-01-13T09:23:58.656Z,6.90
2019-01-13T09:26:25.954Z,6.80
2019-01-13T09:29:05.707Z,6.90
2019-01-13T09:31:32.965Z,6.90
2019-01-13T09:34:15.632Z,7.00
2019-01-13T09:36:42.888Z,6.90
2019-01-13T09:39:10.343Z,6.90
2019-01-13T09:41:37.708Z,6.80
2019-01-13T09:44:05.052Z,6.80
2019-01-13T09:46:32.300Z,6.90
2019-01-13T09:48:59.682Z,6.90
2019-01-13T09:51:27.038Z,6.90
2019-01-13T09:53:54.260Z,7.10
2019-01-13T09:56:21.492Z,7.00
2019-01-13T09:58:50.884Z,7.10
2019-01-13T10:01:19.655Z,7.20
2019-01-13T10:03:48.943Z,7.20
2019-01-13T10:06:17.132Z,7.20
2019-01-13T10:08:44.549Z,7.30
2019-01-13T10:11:11.927Z,7.10
2019-01-13T10:13:39.196Z,7.20
2019-01-13T10:16:06.475Z,7.50
2019-01-13T10:18:33.740Z,7.50
2019-01-13T10:21:01.041Z,7.60
2019-01-13T10:23:28.291Z,7.60
2019-01-13T10:25:55.541Z,7.60
2019-01-13T10:28:22.847Z,7.60
2019-01-13T10:30:50.112Z,7.60
2019-01-13T10:33:21.535Z,7.70
2019-01-13T10:35:48.804Z,7.70
2019-01-13T10:38:16.091Z,7.80
2019-01-13T10:40:43.359Z,7.80
2019-01-13T10:43:10.592Z,7.80
2019-01-13T10:45:37.962Z,7.80
2019-01-13T10:48:05.201Z,7.80
2019-01-13T10:50:32.463Z,7.80
2019-01-13T10:53:01.872Z,7.90
2019-01-13T10:55:29.245Z,7.90
2019-01-13T10:57:56.752Z,7.90
2019-01-13T11:00:26.404Z,8.00
2019-01-13T11:02:53.676Z,8.00
2019-01-13T11:05:20.899Z,8.10
2019-01-13T11:07:48.192Z,8.00
2019-01-13T11:10:15.504Z,8.20
2019-01-13T11:12:42.873Z,8.20
2019-01-13T11:15:10.473Z,8.10
2019-01-13T11:17:37.724Z,8.20
2019-01-13T11:20:07.905Z,8.20
2019-01-13T11:22:35.175Z,8.20
2019-01-13T11:25:02.773Z,8.20
2019-01-13T11:27:30.080Z,8.20
2019-01-13T11:29:57.411Z,8.20
2019-01-13T11:32:24.643Z,8.30
2019-01-13T11:34:51.929Z,8.30
2019-01-13T11:37:19.183Z,8.20
2019-01-13T11:39:46.428Z,8.20
2019-01-13T11:42:13.766Z,8.30
2019-01-13T11:44:41.189Z,8.30
2019-01-13T11:47:08.503Z,8.20
2019-01-13T11:49:41.712Z,8.10
2019-01-13T11:52:09.045Z,8.00
2019-01-13T11:54:36.323Z,8.00
2019-01-13T11:57:03.584Z,8.20
2019-01-13T11:59:30.863Z,8.10
2019-01-13T12:01:58.180Z,8.10
2019-01-13T12:04:25.454Z,8.00
2019-01-13T12:06:52.739Z,8.10
2019-01-13T12:09:20.032Z,8.10
2019-01-13T12:11:47.329Z,8.00
2019-01-13T12:14:14.672Z,8.00
2019-01-13T12:16:42.159Z,8.10
2019-01-13T12:19:09.450Z,8.10
2019-01-13T12:21:36.723Z,8.10
2019-01-13T12:24:04.072Z,8.20
2019-01-13T12:26:31.317Z,8.10
2019-01-13T12:28:58.599Z,8.20
2019-01-13T12:31:25.955Z,8.20
2019-01-13T12:33:53.268Z,8.20
2019-01-13T12:36:20.787Z,8.10
2019-01-13T12:38:48.191Z,8.10
2019-01-13T12:41:18.181Z,8.30
2019-01-13T12:43:45.448Z,8.30
2019-01-13T12:46:12.804Z,8.20
2019-01-13T12:48:40.115Z,8.30
2019-01-13T12:51:07.398Z,8.30
2019-01-13T12:53:34.979Z,8.30
2019-01-13T12:56:02.231Z,8.20
2019-01-13T12:58:29.584Z,8.20
2019-01-13T13:00:56.883Z,8.30
2019-01-13T13:03:24.245Z,8.40
2019-01-13T13:05:51.621Z,8.30
2019-01-13T13:08:18.940Z,8.40
2019-01-13T13:10:49.121Z,8.30
2019-01-13T13:13:16.436Z,8.40
2019-01-13T13:15:43.716Z,8.40
2019-01-13T13:18:13.840Z,8.50
2019-01-13T13:20:41.111Z,8.60
2019-01-13T13:23:08.864Z,8.50
2019-01-13T13:25:36.187Z,8.50
2019-01-13T13:28:04.440Z,8.50
2019-01-13T13:30:31.758Z,8.60
2019-01-13T13:32:59.039Z,8.50
2019-01-13T13:35:26.296Z,8.60
2019-01-13T13:37:53.565Z,8.60
2019-01-13T13:40:22.128Z,8.60
2019-01-13T13:42:49.418Z,8.80
2019-01-13T13:45:17.013Z,8.70
2019-01-13T13:47:44.744Z,8.60
2019-01-13T13:50:14.409Z,8.70
2019-01-13T13:52:41.654Z,8.70
2019-01-13T13:55:09.291Z,8.70
2019-01-13T13:57:36.628Z,8.70
2019-01-13T14:00:11.134Z,8.80
2019-01-13T14:02:38.376Z,8.70
2019-01-13T14:05:05.735Z,8.70
2019-01-13T14:07:33.044Z,8.70
2019-01-13T14:10:00.296Z,8.80
2019-01-13T14:12:27.550Z,8.80
2019-01-13T14:14:54.815Z,8.70
2019-01-13T14:17:22.086Z,8.70
2019-01-13T14:19:49.331Z,8.60
2019-01-13T14:22:16.593Z,8.70
2019-01-13T14:24:44.032Z,8.70
2019-01-13T14:27:11.396Z,8.70
2019-01-13T14:29:38.660Z,8.70
2019-01-13T14:32:05.891Z,8.60
2019-01-13T14:34:33.155Z,8.80
2019-01-13T14:37:00.393Z,8.80
2019-01-13T14:39:27.668Z,8.90
2019-01-13T14:41:54.948Z,8.90
2019-01-13T14:44:25.232Z,8.90
2019-01-13T14:46:52.586Z,9.00
2019-01-13T14:49:19.848Z,8.90
2019-01-13T14:51:47.143Z,8.90
2019-01-13T14:54:14.688Z,8.90
2019-01-13T14:56:41.982Z,8.90
2019-01-13T14:59:09.331Z,8.90
2019-01-13T15:01:38.828Z,8.80
2019-01-13T15:04:06.175Z,8.90
2019-01-13T15:06:33.441Z,8.90
2019-01-13T15:09:00.696Z,8.90
2019-01-13T15:11:27.959Z,9.00
2019-01-13T15:13:55.216Z,8.90
2019-01-13T15:16:22.536Z,8.90
2019-01-13T15:18:49.788Z,8.90
2019-01-13T15:21:17.033Z,8.80
2019-01-13T15:23:44.274Z,8.90
2019-01-13T15:26:11.535Z,8.90
2019-01-13T15:28:38.855Z,8.80
2019-01-13T15:31:06.082Z,8.80
2019-01-13T15:33:33.377Z,8.80
2019-01-13T15:36:00.612Z,8.80
2019-01-13T15:38:28.064Z,8.70
2019-01-13T15:40:55.315Z,8.70
2019-01-13T15:43:22.660Z,8.60
2019-01-13T15:45:49.931Z,8.60
2019-01-13T15:48:17.227Z,8.60
2019-01-13T15:50:44.464Z,8.60
2019-01-13T15:53:11.843Z,8.60
2019-01-13T15:55:39.095Z,8.70
2019-01-13T15:58:06.426Z,8.70
2019-01-13T16:00:36.063Z,8.60
2019-01-13T16:03:15.467Z,8.50
2019-01-13T16:05:45.799Z,8.40
2019-01-13T16:08:13.044Z,8.40
2019-01-13T16:10:40.665Z,8.50
2019-01-13T16:13:08.270Z,8.40
2019-01-13T16:15:36.067Z,8.50
2019-01-13T16:18:03.938Z,8.40
2019-01-13T16:20:36.200Z,8.40
2019-01-13T16:23:03.983Z,8.40
2019-01-13T16:25:31.282Z,8.50
2019-01-13T16:30:26.381Z,8.50
2019-01-13T16:32:53.744Z,8.60
2019-01-13T16:35:24.888Z,8.50
2019-01-13T16:37:53.757Z,8.70
2019-01-13T16:40:22.845Z,8.60
2019-01-13T16:42:52.651Z,8.60
2019-01-13T16:45:20.021Z,8.60
2019-01-13T16:47:59.941Z,8.60
2019-01-13T16:50:28.352Z,8.60
2019-01-13T16:53:09.588Z,8.70
2019-01-13T16:56:02.004Z,8.70
2019-01-13T16:58:29.273Z,8.70
2019-01-13T17:00:56.550Z,8.70
2019-01-13T17:03:23.876Z,8.80
2019-01-13T17:05:51.166Z,8.60
2019-01-13T17:08:18.471Z,8.60
2019-01-13T17:10:45.739Z,8.80
2019-01-13T17:13:12.987Z,8.80
2019-01-13T17:15:40.373Z,8.70
2019-01-13T17:18:08.162Z,8.80
2019-01-13T17:20:35.453Z,8.80
2019-01-13T17:23:03.017Z,8.90
2019-01-13T17:25:30.307Z,8.90
2019-01-13T17:28:00.121Z,8.90
2019-01-13T17:30:32.479Z,8.90
2019-01-13T17:32:59.718Z,8.80
2019-01-13T17:35:27.482Z,9.00
2019-01-13T17:37:54.840Z,8.80
2019-01-13T17:40:22.828Z,8.80
2019-01-13T17:42:50.297Z,8.80
2019-01-13T17:45:19.031Z,8.90
2019-01-13T17:47:46.756Z,8.90
2019-01-13T17:50:15.769Z,9.10
2019-01-13T17:52:43.060Z,9.00
2019-01-13T17:55:12.811Z,9.00
2019-01-13T17:57:40.099Z,8.90
2019-01-13T18:00:12.952Z,8.90
2019-01-13T18:02:40.317Z,8.90
2019-01-13T18:05:07.788Z,9.00
2019-01-13T18:07:35.116Z,9.00
2019-01-13T18:10:02.491Z,9.10
2019-01-13T18:12:29.815Z,9.20
2019-01-13T18:14:57.495Z,9.30
2019-01-13T18:17:25.219Z,9.20
2019-01-13T18:20:05.947Z,9.30
2019-01-13T18:22:33.303Z,9.20
2019-01-13T18:25:06.778Z,9.10
2019-01-13T18:27:34.108Z,9.10
2019-01-13T18:30:01.633Z,9.10
2019-01-13T18:32:29.166Z,9.00
2019-01-13T18:34:56.745Z,9.10
2019-01-13T18:37:24.137Z,9.00
2019-01-13T18:39:51.405Z,8.90
2019-01-13T18:42:18.735Z,9.00
2019-01-13T18:44:46.000Z,8.90
2019-01-13T18:47:19.262Z,8.90
2019-01-13T18:49:46.499Z,8.90
2019-01-13T18:52:13.904Z,8.70
2019-01-13T18:54:41.165Z,8.70
2019-01-13T18:57:08.428Z,8.80
2019-01-13T18:59:35.805Z,8.60
2019-01-13T19:02:03.338Z,8.60
2019-01-13T19:04:30.593Z,8.50
2019-01-13T19:06:57.967Z,8.50
2019-01-13T19:09:25.312Z,8.50
2019-01-13T19:11:52.714Z,8.60
2019-01-13T19:14:32.463Z,8.50
2019-01-13T19:17:04.746Z,8.60
2019-01-13T19:19:56.912Z,8.60
2019-01-13T19:22:25.864Z,8.60
2019-01-13T19:24:56.486Z,8.70
2019-01-13T19:27:23.778Z,8.70
2019-01-13T19:29:51.056Z,8.50
2019-01-13T19:32:24.523Z,8.40
2019-01-13T19:34:51.868Z,8.50
2019-01-13T19:37:19.235Z,8.40
2019-01-13T19:39:46.646Z,8.40
2019-01-13T19:42:13.964Z,8.40
2019-01-13T19:44:41.247Z,8.30
2019-01-13T19:47:08.542Z,8.30
2019-01-13T19:49:35.849Z,8.40
2019-01-13T19:52:06.481Z,8.30
2019-01-13T19:54:33.754Z,8.40
2019-01-13T19:57:01.037Z,8.50
2019-01-13T19:59:28.329Z,8.70
2019-01-13T20:01:55.601Z,8.60
2019-01-13T20:04:22.968Z,8.60
2019-01-13T20:06:50.581Z,8.70
2019-01-13T20:09:17.848Z,8.70
2019-01-13T20:11:45.156Z,8.60
2019-01-13T20:14:12.432Z,8.40
2019-01-13T20:16:39.688Z,8.40
2019-01-13T20:19:06.982Z,8.40
2019-01-13T20:21:34.296Z,8.50
2019-01-13T20:24:01.600Z,8.50
2019-01-13T20:26:29.043Z,8.40
2019-01-13T20:28:56.421Z,8.40
2019-01-13T20:31:23.686Z,8.30
2019-01-13T20:33:50.987Z,8.30
2019-01-13T20:36:18.248Z,8.40
2019-01-13T20:38:45.509Z,8.20
2019-01-13T20:41:12.789Z,8.20
2019-01-13T20:43:40.100Z,8.20
2019-01-13T20:46:07.367Z,8.20
2019-01-13T20:48:34.645Z,8.20
2019-01-13T20:51:01.928Z,8.40
2019-01-13T20:53:29.199Z,8.30
2019-01-13T20:55:56.473Z,8.50
2019-01-13T20:58:23.931Z,8.40
2019-01-13T21:00:51.366Z,8.30
2019-01-13T21:03:18.708Z,8.30
2019-01-13T21:05:46.081Z,8.10
2019-01-13T21:08:13.515Z,8.20
2019-01-13T21:10:40.838Z,8.10
2019-01-13T21:13:08.181Z,8.10
2019-01-13T21:16:11.616Z,8.00
2019-01-13T21:18:44.763Z,8.00
2019-01-13T21:21:12.044Z,7.90
2019-01-13T21:23:39.310Z,8.00
2019-01-13T21:26:06.619Z,8.10
2019-01-13T21:28:33.981Z,8.10
2019-01-13T21:31:01.231Z,8.10
2019-01-13T21:33:28.487Z,8.10
2019-01-13T21:35:55.800Z,7.90
2019-01-13T21:38:23.080Z,7.90
2019-01-13T21:40:50.433Z,7.90
2019-01-13T21:43:17.725Z,7.70
2019-01-13T21:45:45.062Z,7.70
2019-01-13T21:48:12.620Z,7.60
2019-01-13T21:50:39.971Z,7.60
2019-01-13T21:53:17.526Z,7.60
2019-01-13T21:55:44.832Z,7.50
2019-01-13T21:58:12.079Z,7.50
2019-01-13T22:00:39.393Z,7.50
2019-01-13T22:03:06.687Z,7.40
2019-01-13T22:05:40.798Z,7.40
2019-01-13T22:08:03.503Z,7.30
2019-01-13T22:10:36.812Z,7.20
2019-01-13T22:13:28.907Z,7.20
2019-01-13T22:15:58.851Z,7.20
2019-01-13T22:18:26.129Z,7.10
2019-01-13T22:20:53.552Z,7.10
2019-01-13T22:23:20.906Z,7.00
2019-01-13T22:25:48.175Z,7.10
2019-01-13T22:28:15.472Z,7.00
2019-01-13T22:30:42.719Z,7.00
2019-01-13T22:33:09.981Z,6.90
2019-01-13T22:35:37.255Z,6.90
2019-01-13T22:38:25.905Z,6.80
2019-01-13T22:40:53.231Z,6.80
2019-01-13T22:43:20.475Z,6.80
2019-01-13T22:45:50.860Z,6.80
2019-01-13T22:48:18.127Z,6.70
2019-01-13T22:50:45.401Z,6.70
2019-01-13T22:53:31.360Z,6.70
2019-01-13T22:55:59.161Z,6.70
2019-01-13T22:58:27.628Z,6.70
2019-01-13T23:01:16.548Z,6.60
2019-01-13T23:04:00.471Z,6.60
2019-01-13T23:06:28.768Z,6.60
2019-01-13T23:08:57.481Z,6.50
2019-01-13T23:11:33.984Z,6.50
2019-01-13T23:14:38.183Z,6.40
2019-01-13T23:17:05.453Z,6.50
2019-01-13T23:19:45.397Z,6.50
2019-01-13T23:22:12.652Z,6.50
2019-01-13T23:24:40.009Z,6.50
2019-01-13T23:27:07.296Z,6.50
2019-01-13T23:29:34.738Z,6.50
2019-01-13T23:32:02.097Z,6.50
2019-01-13T23:34:29.349Z,6.50
2019-01-13T23:36:56.847Z,6.40
2019-01-13T23:39:39.305Z,6.40
2019-01-13T23:42:06.590Z,6.40
2019-01-13T23:44:33.836Z,6.30
2019-01-13T23:47:01.082Z,6.40
2019-01-13T23:49:31.208Z,6.20
2019-01-13T23:51:58.604Z,6.30
2019-01-13T23:54:25.980Z,6.30
2019-01-13T23:56:53.387Z,6.30
2019-01-13T23:59:20.706Z,6.50
